createdAt,value
2018-11-20T00:00:39.017Z,4.60
2018-11-20T00:03:38.426Z,4.30
2018-11-20T00:06:59.480Z,3.80
2018-11-20T00:10:01.359Z,4.10
2018-11-20T00:12:38.564Z,3.90
2018-11-20T00:15:45.278Z,3.90
2018-11-20T00:18:35.235Z,3.80
2018-11-20T00:21:24.907Z,3.90
2018-11-20T00:24:24.286Z,4.00
2018-11-20T00:27:26.900Z,4.00
2018-11-20T00:30:26.421Z,3.50
2018-11-20T00:33:14.133Z,4.10
2018-11-20T00:36:01.759Z,3.90
2018-11-20T00:39:08.329Z,4.00
2018-11-20T00:42:08.124Z,3.40
2018-11-20T00:45:11.043Z,3.50
2018-11-20T00:48:10.648Z,3.90
2018-11-20T00:51:10.257Z,3.80
2018-11-20T00:53:59.344Z,3.90
2018-11-20T00:56:59.076Z,3.70
2018-11-20T00:59:58.100Z,3.80
2018-11-20T01:02:57.717Z,3.90
2018-11-20T01:05:57.500Z,3.90
2018-11-20T01:09:00.468Z,4.00
2018-11-20T01:11:59.405Z,3.80
2018-11-20T01:14:59.070Z,3.80
2018-11-20T01:17:48.138Z,3.40
2018-11-20T01:20:36.650Z,4.20
2018-11-20T01:23:24.192Z,3.70
2018-11-20T01:26:30.717Z,3.80
2018-11-20T01:29:21.283Z,3.70
2018-11-20T01:32:20.704Z,3.40
2018-11-20T01:35:20.365Z,3.60
2018-11-20T01:38:20.145Z,3.40
2018-11-20T01:41:12.224Z,3.50
2018-11-20T01:44:12.015Z,3.80
2018-11-20T01:47:13.420Z,3.80
2018-11-20T01:50:01.176Z,3.80
2018-11-20T01:52:58.065Z,3.90
2018-11-20T01:55:57.391Z,3.90
2018-11-20T01:58:56.362Z,3.80
2018-11-20T02:01:58.812Z,3.70
2018-11-20T02:04:58.039Z,4.20
2018-11-20T02:07:57.815Z,4.20
2018-11-20T02:11:00.845Z,3.80
2018-11-20T02:14:26.763Z,4.10
2018-11-20T02:17:35.181Z,4.00
2018-11-20T02:20:35.070Z,3.70
2018-11-20T02:23:40.520Z,3.50
2018-11-20T02:26:40.435Z,4.10
2018-11-20T02:29:40.471Z,4.10
2018-11-20T02:32:40.105Z,3.80
2018-11-20T02:35:34.750Z,4.30
2018-11-20T02:38:33.744Z,4.40
2018-11-20T02:41:27.355Z,4.10
2018-11-20T02:44:26.708Z,4.10
2018-11-20T02:50:30.760Z,3.70
2018-11-20T02:53:30.006Z,4.10
2018-11-20T02:56:29.780Z,4.10
2018-11-20T02:59:29.694Z,4.00
2018-11-20T03:02:20.049Z,4.10
2018-11-20T03:05:19.090Z,3.90
2018-11-20T03:08:18.654Z,4.20
2018-11-20T03:11:18.438Z,4.20
2018-11-20T03:14:18.462Z,4.60
2018-11-20T03:17:18.191Z,4.30
2018-11-20T03:20:20.445Z,4.20
2018-11-20T03:23:19.636Z,4.10
2018-11-20T03:26:25.291Z,4.20
2018-11-20T03:29:24.207Z,4.10
2018-11-20T03:32:26.996Z,4.20
2018-11-20T03:35:28.958Z,4.40
2018-11-20T03:38:28.683Z,4.60
2018-11-20T03:41:28.354Z,4.30
2018-11-20T03:44:30.496Z,4.40
2018-11-20T03:47:26.715Z,4.00
2018-11-20T03:50:19.793Z,4.40
2018-11-20T03:53:19.660Z,4.20
2018-11-20T03:56:22.144Z,4.20
2018-11-20T03:59:09.592Z,4.70
2018-11-20T04:01:57.119Z,4.50
2018-11-20T04:04:59.599Z,4.50
2018-11-20T04:07:59.461Z,4.40
2018-11-20T04:10:59.250Z,4.60
2018-11-20T04:13:59.030Z,4.90
2018-11-20T04:16:58.949Z,3.90
2018-11-20T04:19:56.066Z,4.50
2018-11-20T04:22:55.088Z,4.10
2018-11-20T04:25:54.768Z,4.30
2018-11-20T04:28:53.823Z,4.50
2018-11-20T04:31:46.231Z,4.50
2018-11-20T04:34:48.654Z,4.70
2018-11-20T04:37:47.991Z,4.30
2018-11-20T04:40:47.642Z,4.40
2018-11-20T04:43:47.320Z,4.40
2018-11-20T04:46:49.772Z,4.40
2018-11-20T04:49:48.812Z,4.00
2018-11-20T04:52:48.535Z,3.90
2018-11-20T04:55:47.555Z,4.60
2018-11-20T04:58:44.130Z,4.40
2018-11-20T05:01:43.090Z,4.90
2018-11-20T05:04:40.506Z,4.30
2018-11-20T05:07:42.552Z,4.10
2018-11-20T05:10:42.461Z,4.50
2018-11-20T05:13:42.275Z,4.60
2018-11-20T05:16:41.910Z,4.40
2018-11-20T05:22:14.597Z,4.20
2018-11-20T05:25:12.262Z,4.20
2018-11-20T05:28:11.573Z,4.10
2018-11-20T05:31:11.347Z,4.40
2018-11-20T05:34:10.983Z,4.30
2018-11-20T05:37:11.077Z,4.00
2018-11-20T05:39:58.545Z,4.40
2018-11-20T05:43:01.727Z,4.50
2018-11-20T05:46:01.465Z,4.50
2018-11-20T05:49:00.426Z,4.10
2018-11-20T05:54:52.040Z,4.70
2018-11-20T05:57:46.505Z,4.50
2018-11-20T06:00:33.928Z,4.50
2018-11-20T06:03:40.577Z,4.50
2018-11-20T06:07:01.854Z,4.50
2018-11-20T06:10:08.428Z,4.50
2018-11-20T06:13:13.415Z,4.80
2018-11-20T06:16:02.788Z,4.50
2018-11-20T06:19:02.451Z,4.40
2018-11-20T06:21:51.104Z,4.40
2018-11-20T06:24:49.193Z,4.20
2018-11-20T06:27:49.057Z,4.40
2018-11-20T06:30:49.073Z,3.90
2018-11-20T06:33:51.006Z,4.40
2018-11-20T06:36:46.025Z,5.00
2018-11-20T06:39:39.694Z,4.80
2018-11-20T06:42:36.679Z,4.30
2018-11-20T06:45:41.602Z,4.30
2018-11-20T06:48:40.714Z,4.50
2018-11-20T06:51:39.652Z,3.80
2018-11-20T06:54:39.428Z,4.30
2018-11-20T06:57:45.312Z,4.40
2018-11-20T07:00:44.206Z,4.20
2018-11-20T07:03:46.898Z,4.20
2018-11-20T07:06:34.242Z,4.20
2018-11-20T07:09:40.888Z,4.50
2018-11-20T07:12:39.708Z,4.80
2018-11-20T07:15:33.873Z,4.40
2018-11-20T07:18:32.763Z,4.40
2018-11-20T07:21:32.280Z,4.60
2018-11-20T07:24:31.286Z,4.60
2018-11-20T07:27:30.446Z,4.80
2018-11-20T07:30:36.810Z,4.70
2018-11-20T07:33:35.786Z,4.50
2018-11-20T07:36:35.650Z,4.50
2018-11-20T07:39:35.449Z,4.50
2018-11-20T07:42:22.915Z,4.20
2018-11-20T07:45:25.574Z,4.60
2018-11-20T07:48:28.330Z,4.20
2018-11-20T07:54:27.373Z,4.50
2018-11-20T07:57:21.804Z,4.60
2018-11-20T08:00:21.213Z,4.80
2018-11-20T08:06:29.875Z,4.30
2018-11-20T08:09:29.659Z,4.60
2018-11-20T08:12:19.176Z,4.80
2018-11-20T08:15:17.304Z,4.80
2018-11-20T08:18:13.721Z,4.70
2018-11-20T08:21:03.662Z,4.60
2018-11-20T08:24:02.646Z,5.10
2018-11-20T08:27:01.949Z,4.80
2018-11-20T08:30:01.682Z,4.50
2018-11-20T08:32:45.146Z,4.50
2018-11-20T08:35:51.793Z,4.60
2018-11-20T08:38:54.002Z,4.70
2018-11-20T08:41:33.158Z,4.60
2018-11-20T08:44:32.550Z,4.80
2018-11-20T08:47:32.339Z,4.80
2018-11-20T08:50:31.864Z,4.80
2018-11-20T08:53:20.148Z,4.60
2018-11-20T08:56:27.496Z,4.80
2018-11-20T08:59:27.171Z,4.50
2018-11-20T09:02:26.163Z,4.90
2018-11-20T09:05:24.448Z,4.80
2018-11-20T09:08:19.734Z,4.80
2018-11-20T09:17:41.219Z,4.90
2018-11-20T09:20:26.777Z,4.70
2018-11-20T09:23:33.500Z,4.90
2018-11-20T09:26:45.056Z,4.90
2018-11-20T09:29:53.769Z,5.00
2018-11-20T09:32:53.875Z,4.80
2018-11-20T09:35:53.236Z,5.00
2018-11-20T09:38:52.110Z,4.90
2018-11-20T09:41:46.741Z,5.10
2018-11-20T09:44:46.602Z,5.10
2018-11-20T09:47:39.400Z,5.20
2018-11-20T09:50:39.046Z,4.90
2018-11-20T09:53:47.438Z,4.90
2018-11-20T09:56:46.925Z,5.20
2018-11-20T09:59:46.000Z,5.20
2018-11-20T10:06:03.556Z,5.20
2018-11-20T10:09:12.225Z,5.20
2018-11-20T10:12:18.971Z,5.30
2018-11-20T10:15:20.183Z,5.30
2018-11-20T10:18:00.550Z,5.00
2018-11-20T10:24:05.137Z,5.20
2018-11-20T10:30:44.477Z,4.90
2018-11-20T10:33:44.248Z,5.20
2018-11-20T10:39:29.538Z,5.50
2018-11-20T10:42:35.430Z,5.20
2018-11-20T10:45:34.591Z,5.40
2018-11-20T10:48:37.478Z,5.30
2018-11-20T10:51:18.819Z,5.60
2018-11-20T10:54:18.337Z,5.40
2018-11-20T10:57:18.144Z,5.40
2018-11-20T11:00:23.737Z,5.10
2018-11-20T11:03:22.817Z,5.50
2018-11-20T11:06:22.403Z,5.30
2018-11-20T11:09:23.056Z,5.80
2018-11-20T11:12:06.247Z,5.30
2018-11-20T11:15:05.692Z,4.90
2018-11-20T11:21:11.219Z,5.70
2018-11-20T11:24:10.004Z,5.00
2018-11-20T11:27:03.368Z,5.40
2018-11-20T11:29:51.330Z,5.50
2018-11-20T11:32:38.916Z,5.50
2018-11-20T11:35:38.442Z,5.50
2018-11-20T11:38:18.847Z,5.50
2018-11-20T11:41:25.454Z,5.30
2018-11-20T11:44:25.101Z,5.60
2018-11-20T11:47:27.264Z,5.50
2018-11-20T11:50:17.432Z,6.00
2018-11-20T11:53:26.055Z,5.60
2018-11-20T11:56:26.828Z,5.60
2018-11-20T11:59:30.685Z,5.60
2018-11-20T12:05:06.354Z,5.70
2018-11-20T12:08:05.438Z,5.70
2018-11-20T12:11:04.301Z,5.80
2018-11-20T12:13:54.995Z,6.00
2018-11-20T12:20:27.902Z,5.60
2018-11-20T12:23:27.369Z,5.60
2018-11-20T12:26:35.615Z,5.60
2018-11-20T12:29:20.055Z,5.60
2018-11-20T12:32:31.110Z,5.70
2018-11-20T12:35:33.675Z,5.60
2018-11-20T12:41:59.543Z,5.30
2018-11-20T12:44:59.385Z,5.70
2018-11-20T12:51:35.909Z,5.80
2018-11-20T12:54:43.732Z,5.60
2018-11-20T12:57:34.539Z,5.90
2018-11-20T13:00:30.308Z,5.50
2018-11-20T13:03:35.608Z,5.50
2018-11-20T13:06:35.447Z,5.10
2018-11-20T13:12:44.638Z,5.50
2018-11-20T13:15:44.040Z,5.70
2018-11-20T13:18:43.137Z,5.50
2018-11-20T13:21:45.154Z,5.40
2018-11-20T13:27:42.963Z,6.20
2018-11-20T13:30:45.827Z,5.70
2018-11-20T13:36:33.972Z,5.50
2018-11-20T13:39:45.822Z,5.40
2018-11-20T13:42:45.088Z,5.50
2018-11-20T13:45:45.973Z,5.60
2018-11-20T13:48:45.301Z,5.50
2018-11-20T13:51:49.469Z,5.80
2018-11-20T14:01:03.495Z,5.70
2018-11-20T14:03:57.640Z,5.30
2018-11-20T14:06:57.162Z,5.50
2018-11-20T14:12:37.512Z,5.60
2018-11-20T14:15:29.188Z,5.90
2018-11-20T14:18:09.966Z,5.00
2018-11-20T14:21:09.462Z,5.50
2018-11-20T14:24:08.538Z,5.30
2018-11-20T14:26:50.182Z,5.50
2018-11-20T14:29:49.616Z,5.50
2018-11-20T14:32:51.663Z,5.50
2018-11-20T14:38:56.470Z,5.70
2018-11-20T14:41:45.951Z,6.00
2018-11-20T14:44:34.691Z,5.40
2018-11-20T14:50:37.104Z,5.40
2018-11-20T14:53:38.087Z,5.40
2018-11-20T14:56:39.946Z,5.30
2018-11-20T14:59:39.554Z,5.30
2018-11-20T15:02:39.359Z,5.20
2018-11-20T15:05:19.737Z,4.90
2018-11-20T15:08:19.593Z,4.90
2018-11-20T15:11:14.047Z,5.00
2018-11-20T15:14:13.741Z,5.20
2018-11-20T15:17:13.589Z,5.00
2018-11-20T15:20:13.015Z,4.50
2018-11-20T15:23:14.829Z,4.70
2018-11-20T15:26:13.812Z,5.10
2018-11-20T15:29:13.368Z,4.70
2018-11-20T15:32:12.450Z,5.10
2018-11-20T15:35:15.171Z,4.90
2018-11-20T15:38:14.498Z,4.60
2018-11-20T15:41:03.050Z,4.90
2018-11-20T15:47:08.070Z,4.70
2018-11-20T15:49:58.703Z,4.50
2018-11-20T15:55:47.285Z,4.60
2018-11-20T15:58:47.089Z,4.60
2018-11-20T16:01:44.641Z,4.70
2018-11-20T16:04:43.633Z,4.20
2018-11-20T16:07:50.539Z,4.80
2018-11-20T16:10:52.685Z,4.30
2018-11-20T16:13:40.212Z,4.40
2018-11-20T16:16:46.769Z,4.40
2018-11-20T16:23:14.923Z,4.30
2018-11-20T16:26:14.352Z,4.20
2018-11-20T16:28:54.245Z,4.40
2018-11-20T16:31:53.875Z,4.60
2018-11-20T16:34:53.039Z,4.40
2018-11-20T16:37:40.433Z,4.30
2018-11-20T16:40:49.365Z,4.50
2018-11-20T16:43:48.359Z,4.30
2018-11-20T16:46:48.074Z,4.00
2018-11-20T16:49:48.108Z,4.40
2018-11-20T16:52:47.489Z,4.20
2018-11-20T16:55:49.396Z,3.70
2018-11-20T17:01:50.522Z,3.80
2018-11-20T17:04:49.648Z,3.80
2018-11-20T17:07:49.537Z,4.30
2018-11-20T17:10:48.949Z,3.70
2018-11-20T17:13:48.432Z,3.90
2018-11-20T17:16:54.322Z,3.70
2018-11-20T17:19:40.402Z,4.10
2018-11-20T17:22:32.687Z,4.00
2018-11-20T17:25:31.933Z,4.00
2018-11-20T17:28:32.858Z,4.10
2018-11-20T17:31:23.953Z,4.10
2018-11-20T17:34:17.585Z,4.00
2018-11-20T17:37:12.261Z,4.00
2018-11-20T17:40:11.252Z,3.90
2018-11-20T17:43:07.501Z,4.20
2018-11-20T17:45:57.167Z,4.00
2018-11-20T17:48:56.820Z,4.10
2018-11-20T17:51:55.824Z,4.10
2018-11-20T17:57:58.321Z,4.10
2018-11-20T18:00:57.601Z,3.80
2018-11-20T18:03:35.923Z,3.70
2018-11-20T18:06:23.686Z,4.10
2018-11-20T18:09:13.774Z,4.10
2018-11-20T18:12:20.659Z,4.10
2018-11-20T18:15:20.625Z,4.10
2018-11-20T18:18:20.269Z,4.10
2018-11-20T18:21:20.131Z,4.00
2018-11-20T18:24:07.783Z,4.60
2018-11-20T18:27:18.699Z,4.20
2018-11-20T18:30:14.198Z,4.30
2018-11-20T18:33:17.531Z,4.40
2018-11-20T18:38:57.686Z,4.30
2018-11-20T18:42:03.298Z,4.20
2018-11-20T18:44:47.016Z,4.30
2018-11-20T18:47:34.330Z,4.10
2018-11-20T18:50:40.950Z,4.30
2018-11-20T18:53:40.080Z,4.60
2018-11-20T18:56:39.141Z,4.30
2018-11-20T18:59:36.502Z,4.30
2018-11-20T19:05:36.000Z,4.30
2018-11-20T19:08:41.997Z,4.30
2018-11-20T19:11:39.218Z,4.20
2018-11-20T19:14:38.940Z,3.90
2018-11-20T19:17:26.697Z,4.20
2018-11-20T19:21:06.746Z,4.00
2018-11-20T19:24:00.509Z,3.70
2018-11-20T19:27:04.166Z,4.10
2018-11-20T19:30:03.388Z,3.70
2018-11-20T19:33:02.555Z,4.00
2018-11-20T19:36:02.225Z,4.00
2018-11-20T19:39:01.293Z,4.10
2018-11-20T19:42:01.310Z,3.90
2018-11-20T19:45:00.995Z,3.50
2018-11-20T19:48:05.960Z,4.00
2018-11-20T19:51:05.093Z,4.10
2018-11-20T19:54:04.902Z,4.40
2018-11-20T19:57:04.588Z,4.50
2018-11-20T20:00:00.993Z,4.50
2018-11-20T20:03:01.175Z,4.40
2018-11-20T20:06:03.559Z,4.10
2018-11-20T20:08:57.127Z,4.40
2018-11-20T20:11:56.737Z,4.30
2018-11-20T20:14:56.726Z,4.30
2018-11-20T20:17:56.346Z,4.40
2018-11-20T20:20:54.081Z,4.60
2018-11-20T20:23:49.560Z,4.40
2018-11-20T20:26:49.514Z,4.30
2018-11-20T20:29:49.198Z,4.40
2018-11-20T20:32:49.335Z,4.70
2018-11-20T20:35:46.320Z,4.30
2018-11-20T20:38:46.302Z,4.80
2018-11-20T20:41:46.106Z,4.10
2018-11-20T20:44:33.079Z,4.70
2018-11-20T20:47:19.875Z,4.00
2018-11-20T20:50:18.962Z,4.40
2018-11-20T20:53:18.417Z,4.80
2018-11-20T20:56:21.050Z,4.30
2018-11-20T20:59:26.893Z,4.30
2018-11-20T21:02:26.234Z,4.20
2018-11-20T21:05:27.052Z,4.00
2018-11-20T21:08:15.013Z,4.30
2018-11-20T21:11:14.088Z,4.10
2018-11-20T21:14:14.045Z,4.40
2018-11-20T21:17:20.087Z,4.40
2018-11-20T21:20:25.636Z,4.30
2018-11-20T21:23:24.566Z,4.00
2018-11-20T21:26:33.560Z,4.50
2018-11-20T21:29:39.247Z,4.10
2018-11-20T21:32:38.416Z,4.40
2018-11-20T21:35:37.518Z,4.00
2018-11-20T21:41:58.836Z,3.80
2018-11-20T21:44:58.539Z,3.80
2018-11-20T21:47:55.549Z,3.60
2018-11-20T21:50:54.615Z,3.80
2018-11-20T21:56:41.568Z,3.70
2018-11-20T21:59:52.454Z,3.70
2018-11-20T22:02:51.767Z,3.70
2018-11-20T22:05:54.650Z,3.70
2018-11-20T22:08:47.488Z,3.70
2018-11-20T22:11:34.517Z,3.70
2018-11-20T22:14:31.302Z,3.70
2018-11-20T22:17:31.774Z,3.70
2018-11-20T22:20:31.502Z,3.40
2018-11-20T22:23:31.308Z,3.70
2018-11-20T22:26:18.101Z,3.80
2018-11-20T22:29:24.603Z,3.30
2018-11-20T22:32:24.704Z,3.60
2018-11-20T22:35:23.712Z,4.20
2018-11-20T22:38:12.029Z,3.70
2018-11-20T22:41:11.112Z,3.60
2018-11-20T22:44:10.620Z,3.60
2018-11-20T22:46:57.816Z,3.30
2018-11-20T22:50:04.341Z,3.70
2018-11-20T22:53:03.666Z,3.60
2018-11-20T22:56:02.755Z,3.60
2018-11-20T22:59:01.776Z,3.60
2018-11-20T23:02:01.587Z,3.90
2018-11-20T23:05:04.407Z,3.60
2018-11-20T23:08:04.027Z,3.50
2018-11-20T23:10:47.996Z,3.60
2018-11-20T23:13:28.365Z,3.30
2018-11-20T23:16:08.547Z,3.90
2018-11-20T23:18:48.615Z,3.60
2018-11-20T23:21:16.554Z,3.50
2018-11-20T23:24:03.592Z,3.50
2018-11-20T23:26:46.858Z,3.50
2018-11-20T23:29:27.203Z,3.50
2018-11-20T23:32:06.896Z,3.10
2018-11-20T23:34:46.695Z,3.50
2018-11-20T23:37:26.331Z,3.60
2018-11-20T23:40:05.870Z,3.70
2018-11-20T23:42:45.670Z,3.50
2018-11-20T23:45:25.610Z,3.50
2018-11-20T23:47:52.947Z,3.40
2018-11-20T23:50:39.837Z,3.40
2018-11-20T23:53:20.094Z,3.20
2018-11-20T23:56:00.373Z,3.30
2018-11-20T23:58:39.979Z,3.40
